MRIT2: Lake Meredith

                                SHEF ID:       MRIT2     Lake Meredith
STATION TYPE: RESERVOIR
Flood Pool: Bottom = 2941.30, Top = 2965.00

PRECIP ELEVATION STORAGE INFLOW RELEASE WIND-DIRWIND-SPEED
in ft ac-ft cfs cfs deg mph
Ccp-Rev Ccp-Rev Ccp-Rev Rev-Regi Rev-Regi Ccp-Rev Ccp-Rev
(America/Chicago)
07/09 00:00 ---- 2891.93 264559 148 0 91.00 17.00
07/09 01:00 ---- 2891.98 264952 148 0 110.00 14.00
07/09 02:00 ---- 2891.99 265030 166 0 95.00 9.00
07/09 03:00 ---- 2891.96 264795 182 0 171.00 10.00
07/09 04:00 ---- 2891.97 264873 52 0 202.00 7.00
07/09 05:00 ---- 2891.98 264952 34 0 239.00 6.00
07/09 06:00 ---- 2891.93 264559 34 0 4.00 8.00
07/09 07:00 ---- 2891.93 264559 74 0 38.00 3.00
07/09 08:00 ---- 2891.92 264481 58 0 ---- ----
07/09 09:00 ---- 2891.97 264873 58 0 ---- ----
07/09 10:00 ---- 2891.96 264795 58 0 ---- ----
07/09 11:00 ---- 2891.95 264716 58 0 ---- ----
07/09 12:00 ---- 2891.96 264795 0 0 ---- ----
07/09 13:00 ---- 2891.93 264559 0 0 ---- ----
07/09 14:00 ---- 2891.95 264716 0 0 ---- ----
07/09 15:00 ---- 2891.95 264716 0 0 ---- ----
07/09 16:00 ---- 2891.93 264559 128 0 ---- ----
07/09 17:00 ---- 2891.93 264559 220 0 ---- ----
07/09 18:00 ---- 2891.95 264716 311 0 ---- ----
07/09 19:00 ---- 2891.96 264795 311 0 ---- ----
07/09 20:00 ---- 2891.97 264873 520 0 ---- ----
07/09 21:00 ---- 2891.97 264873 392 0 ---- ----
07/09 22:00 ---- 2891.99 265030 717 0 ---- ----
07/09 23:00 ---- 2891.99 ---- ---- ---- ---- ----
Data processed at Thu 10Jul2025 04:43 GMT

Parsing this webpage?

Checkout our new Data API! CWMSDataAPI (CDA)

Timeseries IDs (TSIDs)

TSIDs used from left to right in the data table
MERE.Precip-Inc.Total.1Hour.1Hour.Ccp-Rev
MERE.Elev.Inst.1Hour.0.Ccp-Rev
MERE.Stor.Inst.1Hour.0.Ccp-Rev
MERE.Flow-Res In.Ave.1Hour.1Hour.Rev-Regi-Computed
MERE.Flow-Res Out.Ave.1Hour.1Hour.Rev-Regi-Flowgroup
MERE.Dir-Wind.Inst.1Hour.0.Ccp-Rev
MERE.Speed-Wind.Inst.1Hour.0.Ccp-Rev

                            

All information presented herein is the property of the government of the United States of America and may be revised or deleted at any time without prior notice. Dissemination of this information without the expressed written consent of the Public Affairs Office, Tulsa District U.S. Army Corps of Engineers is strictly prohibited. These data are gathered electronically and, as presented, have NOT undergone any form of quality control. These data are NOT guaranteed to be valid or correct.